KSDY/SDY METAR and TAF weather

Enter ICAO airport designator
Station Type Date Time Source
KSDY METAR 2021/04/13 21:56 UTC NOAA

KSDY 132156Z AUTO 34010KT 6SM -SN BKN016 BKN020 OVC027 M02/M04 A3029 RMK AO2 SLP289 P0001 T10171044 FZRANO


Station Type Date Time Source
KSDY Decoded METAR 2021/04/13 21:56 UTC NOAA

Sidney-Richland, MT, United States (KSDY) 47-42N 104-12W
Apr 13, 2021 - 05:56 PM EDT / 2021.04.13 2156 UTC
Wind: from the NNW (340 degrees) at 12 MPH (10 KT):0
Visibility: 6 mile(s):0
Sky conditions: overcast
Weather: light snow
Precipitation last hour: 0.01 inches
Temperature: 28.9 F (-1.7 C)
Windchill: 19 F (-7 C):1
Dew Point: 24.1 F (-4.4 C)
Relative Humidity: 81%
Pressure (altimeter): 30.29 in. Hg (1025 hPa)
ob: KSDY 132156Z AUTO 34010KT 6SM -SN BKN016 BKN020 OVC027 M02/M04 A3029 RMK AO2 SLP289 P0001 T10171044 FZRANO
cycle: 22

Station Type Date Time Source
KSDY TAF 2021/04/13 18:22 UTC NOAA

TAF KSDY 131720Z 1318/1418 33015KT 5SM -SN BR SCT005 OVC018
FM132300 34014G22KT P6SM SCT005 OVC013

Example: see airport list